createdAt,value
2022-09-11T00:10:29.829Z,11.60
2022-09-11T00:13:38.356Z,11.60
2022-09-11T00:16:29.074Z,11.60
2022-09-11T00:19:22.905Z,11.70
2022-09-11T00:21:55.535Z,11.60
2022-09-11T00:24:30.066Z,11.60
2022-09-11T00:27:14.402Z,11.60
2022-09-11T00:29:53.531Z,11.60
2022-09-11T00:32:33.766Z,11.50
2022-09-11T00:35:16.571Z,11.50
2022-09-11T00:37:49.725Z,11.50
2022-09-11T00:40:23.297Z,11.50
2022-09-11T00:42:55.726Z,11.50
2022-09-11T00:45:36.015Z,11.60
2022-09-11T00:48:07.705Z,11.60
2022-09-11T00:50:43.705Z,11.60
2022-09-11T00:53:17.867Z,11.60
2022-09-11T00:55:59.522Z,11.60
2022-09-11T00:58:38.502Z,11.60
2022-09-11T01:01:12.045Z,11.60
2022-09-11T01:03:44.301Z,11.60
2022-09-11T01:06:15.642Z,11.60
2022-09-11T01:08:46.448Z,11.50
2022-09-11T01:11:28.259Z,11.60
2022-09-11T01:14:02.691Z,11.50
2022-09-11T01:16:46.982Z,11.50
2022-09-11T01:19:35.017Z,11.60
2022-09-11T01:22:26.257Z,11.60
2022-09-11T01:25:13.260Z,11.60
2022-09-11T01:27:48.394Z,11.60
2022-09-11T01:30:28.726Z,11.50
2022-09-11T01:33:39.783Z,11.60
2022-09-11T01:36:27.278Z,11.50
2022-09-11T01:39:12.556Z,11.50
2022-09-11T01:41:58.708Z,11.50
2022-09-11T01:44:50.563Z,11.50
2022-09-11T01:48:23.908Z,11.50
2022-09-11T01:51:22.124Z,11.50
2022-09-11T01:54:12.191Z,11.50
2022-09-11T01:56:53.269Z,11.50
2022-09-11T02:00:21.064Z,11.40
2022-09-11T02:03:38.900Z,11.40
2022-09-11T02:10:57.712Z,11.50
2022-09-11T02:17:09.942Z,11.50
2022-09-11T02:19:43.511Z,11.40
2022-09-11T02:22:38.970Z,11.40
2022-09-11T02:25:15.253Z,11.40
2022-09-11T02:27:49.551Z,11.40
2022-09-11T02:30:45.826Z,11.40
2022-09-11T02:33:49.985Z,11.40
2022-09-11T02:37:06.460Z,11.40
2022-09-11T02:41:00.107Z,11.40
2022-09-11T02:44:56.060Z,11.50
2022-09-11T02:48:48.382Z,11.50
2022-09-11T02:52:05.627Z,11.50
2022-09-11T02:58:22.014Z,11.50
2022-09-11T03:06:03.454Z,11.40
2022-09-11T03:09:22.586Z,11.40
2022-09-11T03:12:59.181Z,11.40
2022-09-11T03:16:10.293Z,11.40
2022-09-11T03:18:42.377Z,11.40
2022-09-11T03:21:21.451Z,11.40
2022-09-11T03:23:57.905Z,11.40
2022-09-11T03:30:02.009Z,11.40
2022-09-11T03:33:07.832Z,11.40
2022-09-11T03:36:08.273Z,11.30
2022-09-11T03:38:46.333Z,11.30
2022-09-11T03:42:27.416Z,11.30
2022-09-11T03:46:04.364Z,11.30
2022-09-11T03:49:01.215Z,11.30
2022-09-11T03:51:38.336Z,11.30
2022-09-11T03:54:20.924Z,11.30
2022-09-11T04:00:34.082Z,11.20
2022-09-11T04:03:02.861Z,11.30
2022-09-11T04:05:59.117Z,11.20
2022-09-11T04:08:34.600Z,11.20
2022-09-11T04:11:14.442Z,11.20
2022-09-11T04:13:52.299Z,11.20
2022-09-11T04:16:36.744Z,11.10
2022-09-11T04:19:06.010Z,11.10
2022-09-11T04:21:44.036Z,11.00
2022-09-11T04:24:13.994Z,11.00
2022-09-11T04:26:52.185Z,11.00
2022-09-11T04:29:36.327Z,11.00
2022-09-11T04:32:04.944Z,11.00
2022-09-11T04:34:46.645Z,11.00
2022-09-11T04:37:25.871Z,10.90
2022-09-11T04:39:57.363Z,11.00
2022-09-11T04:42:33.570Z,11.00
2022-09-11T04:45:20.925Z,11.00
2022-09-11T04:47:53.132Z,11.00
2022-09-11T04:50:23.871Z,11.10
2022-09-11T04:53:42.328Z,11.10
2022-09-11T04:56:17.059Z,11.10
2022-09-11T04:58:57.479Z,11.10
2022-09-11T05:01:34.187Z,11.10
2022-09-11T05:04:05.815Z,11.10
2022-09-11T05:06:45.427Z,11.10
2022-09-11T05:09:34.960Z,11.00
2022-09-11T05:12:18.457Z,11.10
2022-09-11T05:14:57.577Z,11.00
2022-09-11T05:17:26.407Z,11.00
2022-09-11T05:20:03.473Z,11.00
2022-09-11T05:22:41.633Z,11.00
2022-09-11T05:25:15.618Z,11.10
2022-09-11T05:27:48.228Z,11.10
2022-09-11T05:30:20.023Z,11.00
2022-09-11T05:32:48.690Z,11.00
2022-09-11T05:35:29.226Z,11.00
2022-09-11T05:38:00.642Z,11.00
2022-09-11T05:43:50.770Z,11.00
2022-09-11T05:46:27.192Z,11.00
2022-09-11T05:49:01.673Z,11.00
2022-09-11T05:51:44.842Z,11.00
2022-09-11T05:54:17.618Z,11.00
2022-09-11T05:57:14.058Z,11.00
2022-09-11T05:59:48.988Z,11.00
2022-09-11T06:02:22.520Z,11.00
2022-09-11T06:04:56.639Z,10.90
2022-09-11T06:07:39.978Z,10.90
2022-09-11T06:10:09.905Z,10.90
2022-09-11T06:12:55.257Z,10.90
2022-09-11T06:15:57.351Z,10.90
2022-09-11T06:18:38.500Z,11.00
2022-09-11T06:21:29.037Z,10.90
2022-09-11T06:24:11.857Z,11.00
2022-09-11T06:27:01.079Z,11.00
2022-09-11T06:29:35.439Z,11.00
2022-09-11T06:32:53.550Z,11.00
2022-09-11T06:35:46.620Z,11.00
2022-09-11T06:39:19.542Z,10.90
2022-09-11T06:42:02.302Z,11.00
2022-09-11T06:48:49.005Z,11.00
2022-09-11T06:51:42.020Z,11.10
2022-09-11T06:54:12.857Z,11.10
2022-09-11T06:57:06.291Z,11.20
2022-09-11T06:59:42.346Z,11.20
2022-09-11T07:02:15.453Z,11.10
2022-09-11T07:04:48.541Z,11.10
2022-09-11T07:07:33.178Z,11.20
2022-09-11T07:10:12.216Z,11.20
2022-09-11T07:12:45.592Z,11.20
2022-09-11T07:15:17.896Z,11.20
2022-09-11T07:17:58.130Z,11.20
2022-09-11T07:20:28.072Z,11.20
2022-09-11T07:22:56.910Z,11.20
2022-09-11T07:25:32.381Z,11.30
2022-09-11T07:28:06.141Z,11.30
2022-09-11T07:30:53.241Z,11.30
2022-09-11T07:33:30.331Z,11.30
2022-09-11T07:36:29.131Z,11.20
2022-09-11T07:39:40.874Z,11.20
2022-09-11T07:42:46.879Z,11.20
2022-09-11T07:45:22.795Z,11.20
2022-09-11T07:48:15.819Z,11.20
2022-09-11T07:51:21.150Z,11.20
2022-09-11T07:54:10.861Z,11.20
2022-09-11T07:56:47.398Z,11.20
2022-09-11T08:03:31.197Z,11.10
2022-09-11T08:06:30.053Z,11.20
2022-09-11T08:09:21.490Z,11.10
2022-09-11T08:12:03.089Z,11.10
2022-09-11T08:14:40.511Z,11.20
2022-09-11T08:17:26.649Z,11.10
2022-09-11T08:19:58.947Z,11.10
2022-09-11T08:22:39.048Z,11.10
2022-09-11T08:25:23.755Z,11.10
2022-09-11T08:27:57.116Z,11.00
2022-09-11T08:30:26.967Z,11.00
2022-09-11T08:32:56.731Z,11.00
2022-09-11T08:35:25.822Z,11.00
2022-09-11T08:37:56.313Z,11.00
2022-09-11T08:40:28.562Z,11.10
2022-09-11T08:43:05.033Z,11.10
2022-09-11T08:45:37.466Z,11.00
2022-09-11T08:48:18.424Z,11.10
2022-09-11T08:50:59.505Z,11.00
2022-09-11T08:53:35.479Z,11.00
2022-09-11T08:56:15.772Z,10.90
2022-09-11T08:58:58.948Z,11.00
2022-09-11T09:01:39.364Z,10.90
2022-09-11T09:04:32.085Z,10.80
2022-09-11T09:07:17.890Z,10.80
2022-09-11T09:10:08.912Z,10.80
2022-09-11T09:12:59.225Z,10.80
2022-09-11T09:15:40.871Z,10.90
2022-09-11T09:18:25.387Z,10.90
2022-09-11T09:21:13.884Z,10.90
2022-09-11T09:23:52.805Z,10.90
2022-09-11T09:26:40.752Z,10.90
2022-09-11T09:29:27.545Z,11.00
2022-09-11T09:32:06.903Z,10.90
2022-09-11T09:34:42.212Z,10.90
2022-09-11T09:37:25.497Z,10.80
2022-09-11T09:40:03.809Z,10.70
2022-09-11T09:43:01.203Z,10.70
2022-09-11T09:45:50.841Z,10.70
2022-09-11T09:48:36.131Z,10.70
2022-09-11T09:51:17.262Z,11.10
2022-09-11T09:53:58.800Z,10.70
2022-09-11T09:56:37.761Z,10.70
2022-09-11T10:03:22.025Z,10.70
2022-09-11T10:05:55.691Z,10.70
2022-09-11T10:08:48.298Z,10.70
2022-09-11T10:11:30.643Z,10.80
2022-09-11T10:14:49.335Z,10.90
2022-09-11T10:20:42.067Z,10.90
2022-09-11T10:23:48.300Z,11.00
2022-09-11T10:26:31.259Z,11.10
2022-09-11T10:29:14.822Z,11.20
2022-09-11T10:31:55.037Z,11.20
2022-09-11T10:34:54.561Z,11.30
2022-09-11T10:37:39.078Z,11.30
2022-09-11T10:40:38.494Z,11.40
2022-09-11T10:43:47.314Z,11.50
2022-09-11T10:47:14.564Z,11.70
2022-09-11T10:49:49.224Z,11.80
2022-09-11T10:52:38.298Z,11.90
2022-09-11T10:55:39.053Z,12.00
2022-09-11T10:58:36.911Z,12.20
2022-09-11T11:01:20.210Z,12.20
2022-09-11T11:04:14.173Z,12.30
2022-09-11T11:07:35.519Z,12.20
2022-09-11T11:10:30.920Z,12.10
2022-09-11T11:13:39.056Z,12.20
2022-09-11T11:16:38.168Z,12.40
2022-09-11T11:19:49.372Z,12.40
2022-09-11T11:22:56.361Z,12.50
2022-09-11T11:25:41.186Z,12.40
2022-09-11T11:28:41.666Z,12.50
2022-09-11T11:31:51.606Z,12.70
2022-09-11T11:35:18.465Z,12.80
2022-09-11T11:37:51.633Z,12.90
2022-09-11T11:40:27.502Z,12.90
2022-09-11T11:43:25.151Z,12.90
2022-09-11T11:46:15.708Z,13.00
2022-09-11T11:52:16.953Z,13.10
2022-09-11T11:55:04.392Z,13.20
2022-09-11T11:57:43.282Z,13.30
2022-09-11T12:00:19.376Z,13.40
2022-09-11T12:02:58.272Z,13.50
2022-09-11T12:05:42.464Z,13.70
2022-09-11T12:08:14.826Z,13.80
2022-09-11T12:13:49.209Z,14.00
2022-09-11T12:16:31.832Z,14.20
2022-09-11T12:19:28.328Z,14.20
2022-09-11T12:22:12.464Z,14.30
2022-09-11T12:25:01.147Z,14.30
2022-09-11T12:27:59.075Z,14.30
2022-09-11T12:31:00.772Z,14.20
2022-09-11T12:33:55.706Z,14.20
2022-09-11T12:37:05.069Z,14.10
2022-09-11T12:39:45.836Z,14.10
2022-09-11T12:42:56.103Z,14.10
2022-09-11T12:45:45.517Z,14.20
2022-09-11T12:48:20.725Z,14.30
2022-09-11T12:50:58.570Z,14.50
2022-09-11T12:53:49.675Z,14.60
2022-09-11T12:56:23.150Z,14.70
2022-09-11T12:59:11.116Z,14.80
2022-09-11T13:01:45.719Z,15.00
2022-09-11T13:04:22.987Z,15.00
2022-09-11T13:06:58.082Z,15.00
2022-09-11T13:09:48.216Z,15.00
2022-09-11T13:13:06.818Z,15.00
2022-09-11T13:15:51.959Z,14.90
2022-09-11T13:19:03.782Z,14.80
2022-09-11T13:32:04.340Z,15.00
2022-09-11T13:35:14.773Z,15.10
2022-09-11T13:41:41.233Z,15.20
2022-09-11T13:48:15.608Z,15.30
2022-09-11T13:50:48.798Z,15.20
2022-09-11T14:17:47.838Z,15.00
2022-09-11T14:29:37.428Z,14.80
2022-09-11T14:41:09.467Z,14.80
2022-09-11T14:43:51.681Z,14.70
2022-09-11T14:46:36.429Z,14.80
2022-09-11T14:49:15.831Z,14.80
2022-09-11T14:52:08.603Z,14.80
2022-09-11T14:58:05.574Z,14.80
2022-09-11T15:00:44.834Z,14.80
2022-09-11T15:03:15.396Z,14.70
2022-09-11T15:05:58.858Z,14.70
2022-09-11T15:08:35.205Z,14.70
2022-09-11T15:11:08.740Z,14.60
2022-09-11T15:14:11.025Z,14.50
2022-09-11T15:16:34.619Z,14.40
2022-09-11T15:19:24.489Z,14.20
2022-09-11T15:22:04.193Z,14.10
2022-09-11T15:27:47.751Z,14.00
2022-09-11T15:33:13.729Z,13.80
2022-09-11T15:35:45.402Z,13.70
2022-09-11T15:38:38.773Z,13.60
2022-09-11T15:41:22.126Z,13.50
2022-09-11T15:44:12.795Z,13.40
2022-09-11T15:46:56.813Z,13.30
2022-09-11T15:49:34.985Z,13.20
2022-09-11T15:52:06.708Z,13.10
2022-09-11T15:54:37.407Z,13.10
2022-09-11T15:57:07.693Z,13.00
2022-09-11T15:59:43.395Z,13.00
2022-09-11T16:02:45.216Z,13.00
2022-09-11T16:05:39.957Z,13.00
2022-09-11T16:08:10.841Z,12.90
2022-09-11T16:10:41.071Z,12.90
2022-09-11T16:13:26.625Z,12.80
2022-09-11T16:16:07.055Z,12.80
2022-09-11T16:18:50.222Z,12.80
2022-09-11T16:21:23.227Z,12.80
2022-09-11T16:23:55.821Z,12.70
2022-09-11T16:26:33.496Z,12.80
2022-09-11T16:29:07.284Z,12.80
2022-09-11T16:31:49.391Z,12.80
2022-09-11T16:34:18.954Z,12.70
2022-09-11T16:36:48.256Z,12.70
2022-09-11T16:39:20.020Z,12.70
2022-09-11T16:41:49.771Z,12.70
2022-09-11T16:44:23.927Z,12.70
2022-09-11T16:46:54.121Z,12.70
2022-09-11T16:49:22.549Z,12.70
2022-09-11T16:52:41.203Z,12.60
2022-09-11T16:55:10.939Z,12.60
2022-09-11T16:58:16.539Z,12.60
2022-09-11T17:01:13.198Z,12.50
2022-09-11T17:03:43.456Z,12.50
2022-09-11T17:06:13.486Z,12.40
2022-09-11T17:08:43.952Z,12.40
2022-09-11T17:11:15.246Z,12.40
2022-09-11T17:13:49.117Z,12.30
2022-09-11T17:16:24.616Z,12.30
2022-09-11T17:18:58.778Z,12.20
2022-09-11T17:21:29.137Z,12.20
2022-09-11T17:23:58.645Z,12.20
2022-09-11T17:26:27.744Z,12.10
2022-09-11T17:28:56.325Z,12.00
2022-09-11T17:31:26.503Z,12.00
2022-09-11T17:33:55.079Z,12.00
2022-09-11T17:36:24.314Z,11.90
2022-09-11T17:38:55.210Z,11.80
2022-09-11T17:41:23.751Z,11.80
2022-09-11T17:43:52.307Z,11.80
2022-09-11T17:46:23.885Z,11.80
2022-09-11T17:49:02.134Z,11.70
2022-09-11T17:51:30.796Z,11.70
2022-09-11T17:54:00.571Z,11.70
2022-09-11T17:56:31.887Z,11.70
2022-09-11T17:59:01.321Z,11.60
2022-09-11T18:01:31.878Z,11.60
2022-09-11T18:04:12.270Z,11.60
2022-09-11T18:06:42.006Z,11.60
2022-09-11T18:09:15.278Z,11.50
2022-09-11T18:11:45.822Z,11.60
2022-09-11T18:14:16.213Z,11.60
2022-09-11T18:16:45.362Z,11.50
2022-09-11T18:19:16.541Z,11.50
2022-09-11T18:21:50.017Z,11.50
2022-09-11T18:24:20.931Z,11.50
2022-09-11T18:26:58.580Z,11.50
2022-09-11T18:29:30.249Z,11.50
2022-09-11T18:32:00.233Z,11.40
2022-09-11T18:34:31.243Z,11.40
2022-09-11T18:37:00.144Z,11.40
2022-09-11T18:39:28.928Z,11.40
2022-09-11T18:41:57.677Z,11.40
2022-09-11T18:44:26.936Z,11.50
2022-09-11T18:47:06.904Z,11.50
2022-09-11T18:49:52.561Z,11.50
2022-09-11T18:52:26.141Z,11.50
2022-09-11T18:54:54.851Z,11.50
2022-09-11T18:57:23.404Z,11.50
2022-09-11T18:59:52.457Z,11.40
2022-09-11T19:02:21.801Z,11.50
2022-09-11T19:04:52.801Z,11.50
2022-09-11T19:07:21.318Z,11.50
2022-09-11T19:09:51.727Z,11.40
2022-09-11T19:12:21.135Z,11.40
2022-09-11T19:14:49.945Z,11.50
2022-09-11T19:17:18.767Z,11.40
2022-09-11T19:19:47.725Z,11.50
2022-09-11T19:22:34.536Z,11.50
2022-09-11T19:25:03.224Z,11.50
2022-09-11T19:27:32.213Z,11.50
2022-09-11T19:30:00.750Z,11.50
2022-09-11T19:32:29.331Z,11.50
2022-09-11T19:35:02.066Z,11.50
2022-09-11T19:37:36.388Z,11.50
2022-09-11T19:40:05.158Z,11.50
2022-09-11T19:42:33.451Z,11.50
2022-09-11T19:45:01.999Z,11.60
2022-09-11T19:47:30.833Z,11.60
2022-09-11T19:50:14.347Z,11.60
2022-09-11T19:53:00.420Z,11.60
2022-09-11T19:55:29.802Z,11.70
2022-09-11T19:58:05.934Z,11.70
2022-09-11T20:00:38.519Z,11.70
2022-09-11T20:03:06.967Z,11.80
2022-09-11T20:05:35.875Z,11.80
2022-09-11T20:08:16.142Z,11.80
2022-09-11T20:10:48.599Z,11.80
2022-09-11T20:13:17.209Z,11.90
2022-09-11T20:15:45.777Z,11.90
2022-09-11T20:18:14.886Z,11.90
2022-09-11T20:20:45.529Z,11.90
2022-09-11T20:23:21.348Z,12.00
2022-09-11T20:25:54.194Z,12.00
2022-09-11T20:28:22.563Z,12.00
2022-09-11T20:31:00.528Z,12.00
2022-09-11T20:33:29.062Z,12.00
2022-09-11T20:36:03.543Z,12.00
2022-09-11T20:38:40.774Z,11.90
2022-09-11T20:41:11.927Z,11.90
2022-09-11T20:43:46.184Z,11.90
2022-09-11T20:46:21.053Z,11.90
2022-09-11T20:49:00.518Z,11.90
2022-09-11T20:51:29.369Z,11.90
2022-09-11T20:54:43.374Z,11.90
2022-09-11T20:57:21.032Z,11.90
2022-09-11T20:59:52.288Z,12.00
2022-09-11T21:02:22.845Z,11.90
2022-09-11T21:05:20.232Z,12.00
2022-09-11T21:08:00.117Z,12.00
2022-09-11T21:10:30.060Z,12.00
2022-09-11T21:12:58.613Z,12.00
2022-09-11T21:15:45.127Z,11.90
2022-09-11T21:18:22.387Z,11.90
2022-09-11T21:21:02.595Z,11.90
2022-09-11T21:23:31.023Z,11.90
2022-09-11T21:26:33.753Z,11.80
2022-09-11T21:29:03.482Z,11.90
2022-09-11T21:31:32.179Z,11.80
2022-09-11T21:34:10.301Z,11.70
2022-09-11T21:36:44.859Z,11.70
2022-09-11T21:39:18.534Z,11.70
2022-09-11T21:41:49.203Z,11.70
2022-09-11T21:44:23.676Z,11.70
2022-09-11T21:47:01.185Z,11.70
2022-09-11T21:49:37.933Z,11.70
2022-09-11T21:52:08.583Z,11.70
2022-09-11T21:54:38.297Z,11.70
2022-09-11T21:57:12.825Z,11.70
2022-09-11T21:59:41.259Z,11.70
2022-09-11T22:04:55.136Z,11.60
2022-09-11T22:07:24.004Z,11.60
2022-09-11T22:09:53.691Z,11.50
2022-09-11T22:12:41.588Z,11.60
2022-09-11T22:15:10.815Z,11.50
2022-09-11T22:17:39.269Z,11.50
2022-09-11T22:20:11.467Z,11.50
2022-09-11T22:22:41.988Z,11.50
2022-09-11T22:25:13.833Z,11.50
2022-09-11T22:27:47.329Z,11.50
2022-09-11T22:30:17.875Z,11.50
2022-09-11T22:32:47.598Z,11.40
2022-09-11T22:35:16.096Z,11.40
2022-09-11T22:37:44.452Z,11.40
2022-09-11T22:40:12.887Z,11.40
2022-09-11T22:42:50.272Z,11.40
2022-09-11T22:45:24.199Z,11.30
2022-09-11T22:47:53.111Z,11.40
2022-09-11T22:50:23.208Z,11.30
2022-09-11T22:53:01.087Z,11.30
2022-09-11T22:55:29.510Z,11.30
2022-09-11T22:57:59.405Z,11.30
2022-09-11T23:00:29.864Z,11.30
2022-09-11T23:02:58.441Z,11.20
2022-09-11T23:08:29.626Z,11.20
2022-09-11T23:11:05.342Z,11.20
2022-09-11T23:13:36.278Z,11.20
2022-09-11T23:16:21.272Z,11.20
2022-09-11T23:18:55.624Z,11.20
2022-09-11T23:21:33.178Z,11.20
2022-09-11T23:24:06.265Z,11.10
2022-09-11T23:26:36.879Z,11.10
2022-09-11T23:29:09.581Z,11.10
2022-09-11T23:31:47.562Z,11.00
2022-09-11T23:34:19.106Z,11.00
2022-09-11T23:36:50.377Z,11.00
2022-09-11T23:39:21.254Z,11.00
2022-09-11T23:41:52.912Z,11.00
2022-09-11T23:44:25.192Z,11.00
2022-09-11T23:47:02.288Z,11.00
2022-09-11T23:49:36.002Z,10.90
2022-09-11T23:52:09.838Z,10.90
2022-09-11T23:54:41.906Z,10.90
2022-09-11T23:57:12.824Z,10.90
2022-09-11T23:59:57.894Z,10.90
